createdAt,value
2017-12-10T00:01:29.121Z,47.23
2017-12-10T00:04:08.771Z,43.70
2017-12-10T00:06:43.427Z,42.00
2017-12-10T00:09:19.691Z,46.43
2017-12-10T00:11:48.597Z,41.20
2017-12-10T00:14:21.931Z,47.50
2017-12-10T00:16:50.853Z,50.57
2017-12-10T00:19:33.285Z,43.53
2017-12-10T00:24:55.930Z,42.23
2017-12-10T00:27:34.583Z,43.80
2017-12-10T00:30:03.501Z,41.23
2017-12-10T00:32:42.429Z,39.40
2017-12-10T00:35:14.614Z,35.17
2017-12-10T00:37:53.245Z,35.30
2017-12-10T00:40:32.201Z,39.43
2017-12-10T00:43:10.971Z,37.73
2017-12-10T00:45:56.347Z,38.83
2017-12-10T00:48:32.638Z,42.10
2017-12-10T00:51:07.436Z,36.33
2017-12-10T00:53:50.813Z,42.40
2017-12-10T00:56:19.761Z,42.90
2017-12-10T00:58:58.509Z,38.77
2017-12-10T01:01:41.713Z,39.37
2017-12-10T01:04:17.665Z,36.90
2017-12-10T01:06:57.400Z,37.80
2017-12-10T01:09:32.304Z,32.63
2017-12-10T01:12:07.023Z,35.77
2017-12-10T01:14:36.931Z,31.73
2017-12-10T01:17:13.663Z,37.27
2017-12-10T01:19:50.909Z,31.40
2017-12-10T01:22:19.841Z,32.13
2017-12-10T01:24:48.819Z,31.43
2017-12-10T01:33:06.243Z,28.17
2017-12-10T01:38:30.827Z,31.83
2017-12-10T01:40:59.763Z,31.30
2017-12-10T01:46:20.175Z,29.77
2017-12-10T01:48:56.905Z,33.80
2017-12-10T01:51:29.756Z,34.07
2017-12-10T01:54:11.863Z,29.13
2017-12-10T01:56:43.691Z,27.40
2017-12-10T01:59:20.746Z,30.07
2017-12-10T02:01:55.359Z,26.63
2017-12-10T02:04:32.294Z,23.27
2017-12-10T02:07:03.157Z,24.53
2017-12-10T02:09:47.378Z,23.33
2017-12-10T02:12:16.349Z,27.63
2017-12-10T02:14:52.137Z,25.60
2017-12-10T02:17:29.821Z,27.43
2017-12-10T02:19:59.725Z,26.50
2017-12-10T02:22:28.637Z,25.33
2017-12-10T02:24:57.597Z,23.97
2017-12-10T02:30:26.638Z,24.43
2017-12-10T02:33:10.463Z,21.73
2017-12-10T02:35:46.841Z,24.33
2017-12-10T02:38:30.891Z,24.30
2017-12-10T02:41:06.273Z,20.83
2017-12-10T02:43:52.449Z,19.53
2017-12-10T02:46:27.149Z,21.27
2017-12-10T02:49:00.078Z,21.43
2017-12-10T02:51:39.311Z,19.57
2017-12-10T02:54:18.903Z,16.30
2017-12-10T02:59:39.363Z,20.07
2017-12-10T03:02:13.871Z,17.33
2017-12-10T03:04:50.215Z,18.63
2017-12-10T03:07:29.000Z,16.83
2017-12-10T03:09:59.926Z,11.70
2017-12-10T03:15:23.147Z,17.53
2017-12-10T03:23:33.971Z,14.17
2017-12-10T03:26:02.922Z,16.23
2017-12-10T03:28:31.809Z,18.80
2017-12-10T03:31:00.718Z,16.67
2017-12-10T03:36:30.301Z,14.43
2017-12-10T03:38:59.267Z,9.90
2017-12-10T03:41:34.425Z,10.30
2017-12-10T03:44:03.415Z,14.00
2017-12-10T03:46:39.667Z,12.80
2017-12-10T03:49:08.579Z,11.50
2017-12-10T03:51:48.305Z,12.53
2017-12-10T03:54:17.325Z,15.07
2017-12-10T03:56:54.468Z,17.93
2017-12-10T03:59:24.409Z,16.87
2017-12-10T04:04:52.847Z,11.57
2017-12-10T04:07:22.723Z,16.60
2017-12-10T04:09:54.733Z,20.30
2017-12-10T04:15:24.533Z,19.17
2017-12-10T04:20:54.991Z,20.57
2017-12-10T04:23:34.031Z,20.73
2017-12-10T04:26:10.893Z,19.93
2017-12-10T04:28:39.809Z,29.10
2017-12-10T04:31:21.195Z,26.60
2017-12-10T04:33:50.110Z,22.80
2017-12-10T04:36:22.105Z,19.97
2017-12-10T04:38:54.524Z,18.43
2017-12-10T04:41:23.454Z,20.23
2017-12-10T04:44:05.625Z,18.00
2017-12-10T04:46:47.427Z,20.87
2017-12-10T04:49:16.333Z,21.67
2017-12-10T04:51:45.215Z,23.30
2017-12-10T04:54:20.987Z,25.23
2017-12-10T04:57:00.461Z,18.40
2017-12-10T04:59:43.859Z,20.57
2017-12-10T05:02:19.943Z,19.53
2017-12-10T05:04:59.036Z,22.90
2017-12-10T05:07:38.531Z,27.53
2017-12-10T05:10:24.695Z,31.87
2017-12-10T05:12:54.782Z,36.20
2017-12-10T05:15:23.751Z,26.97
2017-12-10T05:17:53.620Z,28.40
2017-12-10T05:20:25.904Z,23.13
2017-12-10T05:23:07.256Z,24.53
2017-12-10T05:25:37.257Z,27.37
2017-12-10T05:28:06.196Z,22.87
2017-12-10T05:30:50.173Z,24.73
2017-12-10T05:33:36.018Z,30.70
2017-12-10T05:36:06.929Z,25.70
2017-12-10T05:38:36.834Z,32.37
2017-12-10T05:41:10.444Z,30.73
2017-12-10T05:43:49.670Z,32.50
2017-12-10T05:46:19.574Z,31.13
2017-12-10T05:48:48.493Z,32.87
2017-12-10T05:51:24.522Z,27.53
2017-12-10T05:53:53.449Z,26.57
2017-12-10T06:02:01.592Z,35.30
2017-12-10T06:04:40.962Z,32.50
2017-12-10T06:07:09.855Z,35.53
2017-12-10T06:09:45.699Z,40.90
2017-12-10T06:12:21.294Z,40.90
2017-12-10T06:14:50.215Z,39.40
2017-12-10T06:17:19.138Z,35.70
2017-12-10T06:19:56.372Z,37.13
2017-12-10T06:22:28.676Z,36.83
2017-12-10T06:25:00.693Z,38.63
2017-12-10T06:27:29.644Z,39.20
2017-12-10T06:30:11.042Z,34.50
2017-12-10T06:32:46.103Z,36.43
2017-12-10T06:35:17.047Z,38.47
2017-12-10T06:37:45.972Z,38.70
2017-12-10T06:43:06.408Z,38.67
2017-12-10T06:45:45.722Z,47.10
2017-12-10T06:48:15.640Z,65.90
2017-12-10T06:50:48.390Z,69.87
2017-12-10T06:53:27.046Z,60.97
2017-12-10T06:55:56.023Z,54.40
2017-12-10T06:58:24.972Z,45.20
2017-12-10T07:00:54.925Z,42.23
2017-12-10T07:03:23.839Z,45.30
2017-12-10T07:05:53.718Z,43.70
2017-12-10T07:08:32.427Z,43.27
2017-12-10T07:11:05.383Z,47.70
2017-12-10T07:13:45.846Z,50.40
2017-12-10T07:16:27.195Z,46.03
2017-12-10T07:18:56.230Z,53.53
2017-12-10T07:21:26.116Z,60.87
2017-12-10T07:23:55.041Z,63.37
2017-12-10T07:26:24.028Z,57.07
2017-12-10T07:28:52.923Z,58.20
2017-12-10T07:31:21.889Z,48.67
2017-12-10T07:33:50.823Z,46.17
2017-12-10T07:36:20.033Z,38.47
2017-12-10T07:38:49.911Z,45.83
2017-12-10T07:41:18.855Z,39.40
2017-12-10T07:43:47.780Z,42.50
2017-12-10T07:46:16.681Z,41.07
2017-12-10T07:48:46.786Z,44.27
2017-12-10T07:51:15.689Z,48.27
2017-12-10T07:53:45.556Z,41.20
2017-12-10T07:56:14.531Z,34.03
2017-12-10T07:58:43.417Z,30.03
2017-12-10T08:01:13.236Z,27.17
2017-12-10T08:03:42.172Z,32.33
2017-12-10T08:06:11.080Z,29.50
2017-12-10T08:08:40.101Z,27.90
2017-12-10T08:11:09.117Z,30.20
2017-12-10T08:13:38.434Z,35.60
2017-12-10T08:16:07.539Z,28.60
2017-12-10T08:18:37.034Z,34.07
2017-12-10T08:21:05.953Z,36.17
2017-12-10T08:23:34.872Z,29.60
2017-12-10T08:26:04.537Z,28.30
2017-12-10T08:28:36.768Z,34.37
2017-12-10T08:31:05.775Z,33.07
2017-12-10T08:33:34.878Z,32.87
2017-12-10T08:36:03.792Z,33.00
2017-12-10T08:38:32.720Z,32.13
2017-12-10T08:41:01.681Z,29.53
2017-12-10T08:43:30.583Z,32.57
2017-12-10T08:45:59.515Z,33.13
2017-12-10T08:48:28.407Z,35.43
2017-12-10T08:50:57.291Z,37.37
2017-12-10T08:53:26.215Z,38.60
2017-12-10T08:55:55.113Z,37.73
2017-12-10T08:58:24.015Z,35.87
2017-12-10T09:00:52.968Z,39.43
2017-12-10T09:03:21.847Z,39.70
2017-12-10T09:05:50.754Z,39.77
2017-12-10T09:08:19.743Z,39.87
2017-12-10T09:10:48.620Z,40.37
2017-12-10T09:13:17.540Z,36.90
2017-12-10T09:15:48.507Z,39.67
2017-12-10T09:18:17.425Z,32.20
2017-12-10T09:20:46.472Z,32.73
2017-12-10T09:23:15.416Z,33.80
2017-12-10T09:25:44.372Z,30.17
2017-12-10T09:28:16.863Z,29.63
2017-12-10T09:30:45.815Z,29.07
2017-12-10T09:33:14.724Z,31.03
2017-12-10T09:35:43.668Z,29.37
2017-12-10T09:38:12.554Z,26.67
2017-12-10T09:40:41.437Z,28.20
2017-12-10T09:43:10.366Z,25.73
2017-12-10T09:45:39.294Z,21.23
2017-12-10T09:48:08.244Z,28.57
2017-12-10T09:50:37.240Z,25.77
2017-12-10T09:53:06.131Z,23.17
2017-12-10T09:55:35.052Z,27.63
2017-12-10T09:58:04.001Z,28.77
2017-12-10T10:00:32.899Z,25.13
2017-12-10T10:03:01.826Z,23.33
2017-12-10T10:05:30.766Z,29.97
2017-12-10T10:08:00.656Z,36.73
2017-12-10T10:10:29.572Z,34.70
2017-12-10T10:12:58.517Z,29.50
2017-12-10T10:15:27.616Z,30.37
2017-12-10T10:17:56.514Z,22.93
2017-12-10T10:20:25.486Z,26.73
2017-12-10T10:22:54.368Z,28.47
2017-12-10T10:25:23.262Z,25.27
2017-12-10T10:27:52.202Z,29.33
2017-12-10T10:30:21.155Z,23.73
2017-12-10T10:32:50.101Z,20.60
2017-12-10T10:35:19.052Z,28.40
2017-12-10T10:37:47.995Z,21.40
2017-12-10T10:40:21.239Z,19.27
2017-12-10T10:42:50.144Z,22.03
2017-12-10T10:45:22.646Z,22.07
2017-12-10T10:47:51.610Z,21.63
2017-12-10T10:50:20.496Z,21.13
2017-12-10T10:52:49.398Z,21.20
2017-12-10T10:55:30.996Z,18.60
2017-12-10T10:58:03.273Z,15.13
2017-12-10T11:00:33.174Z,19.60
2017-12-10T11:03:12.477Z,16.20
2017-12-10T11:05:41.366Z,16.07
2017-12-10T11:08:18.250Z,20.40
2017-12-10T11:10:49.136Z,16.30
2017-12-10T11:13:28.952Z,23.03
2017-12-10T11:16:01.280Z,18.27
2017-12-10T11:18:32.286Z,13.60
2017-12-10T11:21:02.148Z,14.03
2017-12-10T11:23:35.902Z,14.33
2017-12-10T11:26:07.976Z,20.37
2017-12-10T11:28:41.826Z,19.67
2017-12-10T11:31:13.888Z,23.40
2017-12-10T11:33:42.882Z,18.07
2017-12-10T11:36:20.406Z,19.07
2017-12-10T11:38:49.386Z,17.43
2017-12-10T11:41:36.828Z,21.13
2017-12-10T11:44:05.791Z,15.27
2017-12-10T11:46:44.930Z,14.43
2017-12-10T11:52:01.900Z,15.63
2017-12-10T11:54:30.812Z,18.40
2017-12-10T11:56:59.708Z,18.37
2017-12-10T12:22:11.700Z,14.87
2017-12-10T12:24:40.576Z,16.40
2017-12-10T12:27:09.463Z,11.10
2017-12-10T12:30:03.807Z,10.10
2017-12-10T12:32:30.486Z,12.90
2017-12-10T12:34:57.212Z,17.43
2017-12-10T12:37:23.927Z,12.10
2017-12-10T12:39:50.624Z,16.80
2017-12-10T13:15:35.680Z,15.73
2017-12-10T13:18:02.380Z,14.53
2017-12-10T13:20:29.086Z,21.33
2017-12-10T13:22:55.873Z,11.57
2017-12-10T13:25:22.580Z,12.13
2017-12-10T13:27:49.278Z,20.67
2017-12-10T13:30:15.997Z,25.20
2017-12-10T13:35:28.358Z,27.10
2017-12-10T13:38:05.521Z,24.90
2017-12-10T13:40:39.105Z,28.80
2017-12-10T13:43:07.781Z,24.20
2017-12-10T13:45:34.464Z,26.87
2017-12-10T13:48:01.206Z,22.20
2017-12-10T13:50:27.906Z,21.10
2017-12-10T13:52:54.618Z,29.00
2017-12-10T13:55:21.406Z,22.00
2017-12-10T13:57:48.475Z,28.30
2017-12-10T14:00:15.178Z,20.53
2017-12-10T14:02:46.382Z,24.00
2017-12-10T14:05:13.118Z,20.57
2017-12-10T14:07:54.232Z,23.77
2017-12-10T14:10:31.140Z,30.67
2017-12-10T14:13:14.708Z,31.33
2017-12-10T14:15:41.426Z,45.80
2017-12-10T14:18:08.228Z,26.67
2017-12-10T14:20:34.937Z,26.83
2017-12-10T14:23:01.660Z,26.33
2017-12-10T14:25:41.072Z,33.40
2017-12-10T14:28:07.786Z,26.97
2017-12-10T14:30:34.524Z,27.13
2017-12-10T14:33:01.352Z,22.57
2017-12-10T14:35:28.072Z,21.70
2017-12-10T14:37:55.108Z,36.80
2017-12-10T14:40:21.812Z,35.47
2017-12-10T14:42:48.508Z,38.90
2017-12-10T14:45:15.254Z,35.30
2017-12-10T14:47:43.022Z,40.03
2017-12-10T14:50:09.722Z,28.97
2017-12-10T14:52:36.428Z,24.57
2017-12-10T14:55:03.126Z,18.03
2017-12-10T14:57:29.816Z,18.20
2017-12-10T14:59:56.526Z,23.60
2017-12-10T15:02:23.256Z,26.77
2017-12-10T15:04:49.992Z,27.17
2017-12-10T15:07:16.692Z,21.23
2017-12-10T15:09:46.471Z,24.20
2017-12-10T15:12:13.154Z,24.27
2017-12-10T15:14:39.856Z,23.27
2017-12-10T15:17:06.634Z,26.07
2017-12-10T15:19:33.318Z,31.17
2017-12-10T15:22:00.015Z,28.40
2017-12-10T15:24:26.750Z,37.57
2017-12-10T15:26:53.442Z,36.60
2017-12-10T15:29:20.156Z,35.67
2017-12-10T15:31:46.886Z,40.33
2017-12-10T15:34:28.583Z,36.00
2017-12-10T15:36:55.358Z,38.73
2017-12-10T15:39:22.088Z,45.30
2017-12-10T15:41:48.788Z,51.57
2017-12-10T15:44:20.000Z,48.80
2017-12-10T15:46:47.692Z,58.60
2017-12-10T15:49:14.390Z,50.70
2017-12-10T15:51:41.136Z,57.70
2017-12-10T15:54:07.826Z,52.90
2017-12-10T15:56:34.524Z,48.93
2017-12-10T15:59:01.264Z,46.07
2017-12-10T16:01:27.970Z,46.17
2017-12-10T16:03:54.806Z,44.50
2017-12-10T16:06:21.523Z,45.40
2017-12-10T16:08:48.211Z,45.90
2017-12-10T16:11:14.902Z,45.57
2017-12-10T16:13:41.636Z,48.67
2017-12-10T16:16:08.330Z,52.13
2017-12-10T16:18:35.038Z,48.73
2017-12-10T16:21:01.799Z,43.83
2017-12-10T16:23:28.533Z,35.33
2017-12-10T16:25:55.253Z,43.50
2017-12-10T16:28:22.038Z,44.17
2017-12-10T16:30:48.735Z,44.23
2017-12-10T16:33:15.458Z,42.83
2017-12-10T16:35:42.182Z,32.67
2017-12-10T16:38:08.890Z,26.13
2017-12-10T16:40:36.827Z,22.50
2017-12-10T16:43:03.542Z,18.47
2017-12-10T16:45:30.234Z,18.40
2017-12-10T16:47:56.948Z,19.77
2017-12-10T16:50:23.679Z,20.13
2017-12-10T16:52:50.416Z,24.37
2017-12-10T16:55:17.106Z,20.30
2017-12-10T16:57:43.846Z,22.20
2017-12-10T17:00:10.558Z,26.87
2017-12-10T17:02:37.298Z,23.10
2017-12-10T17:05:04.079Z,32.80
2017-12-10T17:07:31.850Z,40.03
2017-12-10T17:09:58.618Z,28.53
2017-12-10T17:12:25.367Z,20.27
2017-12-10T17:14:52.063Z,22.40
2017-12-10T17:17:18.758Z,25.00
2017-12-10T17:19:57.323Z,16.70
2017-12-10T17:22:24.015Z,18.50
2017-12-10T17:24:53.278Z,22.77
2017-12-10T17:27:20.016Z,18.00
2017-12-10T17:29:46.717Z,20.00
2017-12-10T17:32:13.421Z,18.93
2017-12-10T17:34:40.241Z,20.27
2017-12-10T17:37:06.949Z,22.77
2017-12-10T17:39:33.681Z,23.73
2017-12-10T17:42:00.391Z,26.57
2017-12-10T17:44:27.068Z,19.67
2017-12-10T17:46:53.759Z,23.23
2017-12-10T17:49:20.555Z,18.13
2017-12-10T17:51:47.336Z,23.83
2017-12-10T17:54:14.082Z,15.13
2017-12-10T17:56:41.872Z,20.10
2017-12-10T17:59:08.573Z,16.53
2017-12-10T18:01:35.418Z,15.63
2017-12-10T18:04:02.181Z,15.70
2017-12-10T18:06:28.954Z,18.83
2017-12-10T18:08:55.677Z,14.00
2017-12-10T18:11:37.707Z,19.63
2017-12-10T18:14:04.751Z,22.93
2017-12-10T18:16:31.704Z,17.20
2017-12-10T18:18:58.467Z,21.10
2017-12-10T18:21:27.180Z,20.93
2017-12-10T18:24:02.151Z,18.47
2017-12-10T18:26:28.869Z,25.10
2017-12-10T18:28:55.578Z,24.15
2017-12-10T18:31:32.776Z,23.58
2017-12-10T18:34:09.456Z,21.23
2017-12-10T18:36:39.612Z,20.65
2017-12-10T18:39:07.367Z,17.17
2017-12-10T18:41:34.073Z,18.08
2017-12-10T18:44:00.821Z,21.43
2017-12-10T18:46:27.584Z,22.83
2017-12-10T18:51:43.405Z,18.50
2017-12-10T18:54:14.311Z,16.80
2017-12-10T18:56:41.548Z,15.50
2017-12-10T19:01:53.747Z,18.37
2017-12-10T19:04:30.400Z,16.20
2017-12-10T19:12:34.291Z,22.20
2017-12-10T19:23:28.864Z,11.20
2017-12-10T19:25:55.599Z,11.10
2017-12-10T19:28:22.373Z,14.80
2017-12-10T19:30:49.080Z,15.90
2017-12-10T19:33:15.807Z,15.00
2017-12-10T19:35:42.524Z,15.17
2017-12-10T19:38:09.213Z,15.80
2017-12-10T19:40:35.932Z,14.03
2017-12-10T19:48:40.992Z,14.63
2017-12-10T19:51:07.889Z,15.00
2017-12-10T19:53:34.614Z,16.90
2017-12-10T19:56:01.341Z,14.77
2017-12-10T19:58:37.915Z,12.00
2017-12-10T20:01:10.724Z,9.73
2017-12-10T20:03:37.614Z,13.73
2017-12-10T20:09:03.979Z,10.90
2017-12-10T20:11:31.726Z,11.60
2017-12-10T20:14:15.602Z,14.33
2017-12-10T20:16:42.415Z,15.73
2017-12-10T20:19:23.908Z,12.57
2017-12-10T20:24:37.713Z,12.17
2017-12-10T20:27:21.515Z,13.75
2017-12-10T20:29:48.540Z,14.68
2017-12-10T20:37:46.737Z,15.03
2017-12-10T20:40:22.171Z,20.03
2017-12-10T20:43:05.483Z,21.03
2017-12-10T20:45:32.163Z,19.63
2017-12-10T20:53:41.141Z,24.10
2017-12-10T20:59:05.837Z,23.77
2017-12-10T21:01:38.389Z,21.97
2017-12-10T21:04:23.458Z,18.57
2017-12-10T21:06:50.195Z,18.20
2017-12-10T21:09:25.112Z,20.30
2017-12-10T21:11:51.819Z,11.50
2017-12-10T21:14:18.550Z,11.93
2017-12-10T21:16:47.297Z,14.10
2017-12-10T21:22:02.087Z,13.17
2017-12-10T21:24:28.838Z,12.77
2017-12-10T21:27:08.277Z,13.80
2017-12-10T21:29:38.525Z,10.93
2017-12-10T21:35:04.435Z,6.37
2017-12-10T21:37:31.181Z,13.53
2017-12-10T21:39:59.224Z,12.70
2017-12-10T21:42:34.116Z,16.03
2017-12-10T21:45:08.613Z,16.27
2017-12-10T21:47:35.361Z,14.30
2017-12-10T21:50:11.178Z,17.90
2017-12-10T21:52:44.703Z,15.13
2017-12-10T21:55:23.344Z,15.20
2017-12-10T21:57:50.139Z,16.10
2017-12-10T22:00:23.678Z,19.77
2017-12-10T22:03:02.999Z,22.60
2017-12-10T22:05:34.396Z,14.00
2017-12-10T22:08:18.399Z,15.20
2017-12-10T22:10:45.185Z,24.00
2017-12-10T22:13:16.465Z,27.93
2017-12-10T22:15:50.287Z,25.00
2017-12-10T22:18:18.125Z,22.60
2017-12-10T22:20:44.821Z,16.33
2017-12-10T22:23:17.258Z,15.60
2017-12-10T22:25:45.054Z,12.90
2017-12-10T22:31:10.724Z,11.23
2017-12-10T22:33:37.452Z,13.97
2017-12-10T22:36:18.015Z,17.40
2017-12-10T22:39:02.691Z,17.20
2017-12-10T22:41:48.490Z,12.10
2017-12-10T22:50:00.199Z,11.53
2017-12-10T22:52:27.957Z,13.67
2017-12-10T22:55:04.591Z,10.50
2017-12-10T23:05:53.873Z,7.07
2017-12-10T23:08:34.153Z,12.37
2017-12-10T23:13:52.721Z,7.90
2017-12-10T23:16:24.432Z,9.50
2017-12-10T23:21:40.451Z,12.40
2017-12-10T23:26:56.857Z,10.07
2017-12-10T23:29:38.067Z,7.93
2017-12-10T23:40:21.736Z,7.20
2017-12-10T23:42:50.448Z,6.00
2017-12-10T23:45:22.305Z,6.80
2017-12-10T23:50:35.299Z,5.40
2017-12-10T23:53:12.035Z,7.97
2017-12-10T23:55:40.765Z,6.40
2017-12-10T23:58:07.540Z,9.00
